Time;durP1;ratioP1;P1;durP2;ratioP2;P2;SDS_P1;SDS_P2;PMS_P1;PMS_P2;Temp;Humidity;BMP_temperature;BMP_pressure;BME280_temperature;BME280_humidity;BME280_pressure;Samples;Min_cycle;Max_cycle;Signal;HPM_P1;HPM_P2
2022/04/10 00:01:22;;;;;;;6.03;3.05;;;;;;;7.56;82.59;100416.88;5090594;28;20043;-60
2022/04/10 00:03:48;;;;;;;4.55;3.10;;;;;;;7.61;82.72;100415.03;5093805;28;20101;-60
2022/04/10 00:06:13;;;;;;;4.50;2.90;;;;;;;7.60;82.57;100415.97;5093571;28;20020;-60
2022/04/10 00:08:39;;;;;;;4.97;3.00;;;;;;;7.64;81.86;100417.66;5093463;28;20509;-60
2022/04/10 00:11:05;;;;;;;8.18;3.83;;;;;;;7.65;80.96;100411.47;5093428;28;20027;-60
2022/04/10 00:13:30;;;;;;;5.00;3.10;;;;;;;7.63;81.89;100415.03;5093868;28;20012;-60
2022/04/10 00:15:56;;;;;;;7.85;3.72;;;;;;;7.59;82.12;100418.63;5093325;28;20024;-60
2022/04/10 00:18:21;;;;;;;6.72;3.00;;;;;;;7.61;82.30;100416.84;5093168;28;20128;-60
2022/04/10 00:20:46;;;;;;;6.75;3.10;;;;;;;7.61;82.61;100415.03;5086568;28;20052;-60
2022/04/10 00:23:12;;;;;;;7.50;3.65;;;;;;;7.54;82.63;100416.06;5072868;28;20048;-60
2022/04/10 00:25:37;;;;;;;5.32;2.92;;;;;;;7.53;82.80;100424.88;5072951;28;20060;-60
2022/04/10 00:28:03;;;;;;;7.03;3.20;;;;;;;7.50;83.11;100424.91;5073182;28;20024;-60
2022/04/10 00:30:29;;;;;;;5.25;3.15;;;;;;;7.37;82.59;100415.41;5072859;28;20051;-60
2022/04/10 00:32:54;;;;;;;5.65;3.05;;;;;;;7.37;82.59;100423.34;5073345;28;20107;-60
2022/04/10 00:35:20;;;;;;;3.28;2.42;;;;;;;7.31;81.78;100418.13;5075279;28;20413;-60
2022/04/10 00:37:45;;;;;;;5.10;2.70;;;;;;;7.33;82.32;100416.31;5074524;28;20020;-60
2022/04/10 00:40:11;;;;;;;4.22;2.47;;;;;;;7.36;82.54;100429.53;5072682;28;20479;-60
2022/04/10 00:42:39;;;;;;;6.95;2.80;;;;;;;7.34;82.30;100419.84;5073014;28;20107;-60
2022/04/10 00:45:08;;;;;;;8.65;3.10;;;;;;;7.35;82.29;100427.75;5072436;28;20051;-60
2022/04/10 00:47:34;;;;;;;6.68;3.20;;;;;;;7.30;82.15;100421.66;5072746;28;20162;-60
2022/04/10 00:50:03;;;;;;;6.13;2.90;;;;;;;7.23;81.92;100422.63;5072300;28;20032;-60
2022/04/10 00:52:30;;;;;;;6.07;3.17;;;;;;;7.12;82.04;100432.47;5072056;28;20134;-60
2022/04/10 00:54:56;;;;;;;5.57;2.80;;;;;;;7.07;83.24;100434.28;5074028;28;20028;-60
2022/04/10 00:57:23;;;;;;;4.85;2.63;;;;;;;7.00;83.73;100427.31;5072368;28;20031;-60
2022/04/10 00:59:48;;;;;;;6.85;3.85;;;;;;;6.92;83.84;100426.53;5061393;28;20047;-60
2022/04/10 01:02:14;;;;;;;6.90;4.05;;;;;;;6.84;83.94;100431.03;5052652;28;20024;-60
2022/04/10 01:04:39;;;;;;;5.10;2.88;;;;;;;6.81;85.11;100439.00;5052197;28;20041;-60
2022/04/10 01:07:06;;;;;;;4.88;2.63;;;;;;;6.72;84.59;100436.47;5052070;28;20112;-60
2022/04/10 01:09:31;;;;;;;5.45;3.42;;;;;;;6.68;85.11;100437.38;5052376;28;20031;-60
2022/04/10 01:11:58;;;;;;;7.13;3.13;;;;;;;6.61;84.33;100423.34;5052169;28;20025;-60
2022/04/10 01:14:23;;;;;;;6.50;2.85;;;;;;;6.65;84.11;100437.44;5054636;28;20017;-60
2022/04/10 01:16:49;;;;;;;5.60;2.70;;;;;;;6.64;84.72;100443.59;5051985;28;20036;-60
2022/04/10 01:19:18;;;;;;;7.72;2.92;;;;;;;6.61;84.73;100448.91;5071005;28;20037;-60
2022/04/10 01:21:46;;;;;;;3.55;2.15;;;;;;;6.60;84.30;100441.88;5091939;28;20032;-60
2022/04/10 01:24:16;;;;;;;3.80;2.58;;;;;;;6.56;84.03;100445.44;5092183;28;20449;-60
2022/04/10 01:26:43;;;;;;;4.72;2.70;;;;;;;6.57;84.30;100447.19;5074177;28;20077;-60
2022/04/10 01:29:10;;;;;;;6.95;2.63;;;;;;;6.53;84.44;100459.56;5092063;28;20050;-60
2022/04/10 01:31:44;;;;;;;4.95;2.72;;;;;;;6.49;83.80;100452.53;5092072;28;20027;-60
2022/04/10 01:34:13;;;;;;;5.72;2.95;;;;;;;6.51;83.87;100458.69;5091826;28;20555;-60
2022/04/10 01:36:39;;;;;;;5.18;2.90;;;;;;;6.44;84.06;100450.84;5088806;28;20401;-60
2022/04/10 01:39:07;;;;;;;5.75;2.92;;;;;;;6.39;83.55;100447.38;5090770;28;20020;-60
2022/04/10 01:41:34;;;;;;;3.40;2.47;;;;;;;6.35;83.67;100451.81;5090058;28;20360;-60
2022/04/10 01:44:00;;;;;;;4.65;3.13;;;;;;;6.31;84.33;100457.13;5092006;28;20028;-60
2022/04/10 01:46:28;;;;;;;6.40;2.50;;;;;;;6.24;84.64;100458.06;5091705;28;20502;-60
2022/04/10 01:48:54;;;;;;;4.28;2.45;;;;;;;6.10;84.81;100454.63;5091523;28;20046;-60
2022/04/10 01:51:19;;;;;;;5.38;3.15;;;;;;;6.04;85.80;100455.59;5091707;28;20028;-60
2022/04/10 01:53:45;;;;;;;3.83;2.67;;;;;;;5.96;87.39;100440.69;5091901;28;20020;-60
2022/04/10 01:56:11;;;;;;;4.13;2.67;;;;;;;5.93;87.52;100446.00;5078819;28;20537;-60
2022/04/10 01:58:41;;;;;;;5.22;2.58;;;;;;;5.88;88.25;100453.06;5071763;28;20063;-60
2022/04/10 02:01:09;;;;;;;4.55;2.63;;;;;;;5.83;89.06;100446.94;5070675;28;20074;-60
2022/04/10 02:03:35;;;;;;;6.80;3.50;;;;;;;5.81;89.94;100436.34;5070350;28;20059;-60
2022/04/10 02:06:01;;;;;;;5.35;3.25;;;;;;;5.78;89.37;100432.84;5071228;28;20067;-60
2022/04/10 02:08:30;;;;;;;4.60;3.00;;;;;;;5.70;90.10;100447.88;5071661;28;20052;-60
2022/04/10 02:10:56;;;;;;;5.85;3.00;;;;;;;5.61;90.56;100440.00;5071316;28;20048;-60
2022/04/10 02:13:23;;;;;;;5.60;2.95;;;;;;;5.52;91.11;100443.56;5076551;28;20111;-60
2022/04/10 02:15:49;;;;;;;4.50;3.10;;;;;;;5.57;91.84;100438.28;5091353;28;20035;-60
2022/04/10 02:18:14;;;;;;;5.38;3.40;;;;;;;5.46;91.82;100432.16;5091521;28;20475;-60
2022/04/10 02:20:40;;;;;;;5.07;3.40;;;;;;;5.42;92.42;100435.72;5078689;28;20048;-60
2022/04/10 02:23:06;;;;;;;4.82;3.13;;;;;;;5.32;93.39;100438.38;5071207;28;20033;-60
2022/04/10 02:25:31;;;;;;;5.82;2.75;;;;;;;5.17;93.17;100430.53;5071212;28;20074;-60
2022/04/10 02:27:57;;;;;;;5.85;3.22;;;;;;;5.13;93.67;100433.22;5070709;28;20066;-60
2022/04/10 02:30:22;;;;;;;4.72;2.80;;;;;;;5.07;94.03;100439.38;5069512;28;20024;-60
2022/04/10 02:32:48;;;;;;;6.88;3.17;;;;;;;5.05;94.59;100433.25;5070223;28;20024;-60
2022/04/10 02:35:14;;;;;;;5.35;3.10;;;;;;;4.76;95.17;100394.69;5071105;28;20048;-60
2022/04/10 02:37:40;;;;;;;6.00;3.63;;;;;;;4.99;95.61;100440.31;5071095;28;20028;-60
2022/04/10 02:40:07;;;;;;;4.90;3.30;;;;;;;4.90;95.52;100435.94;5071018;28;20028;-60
2022/04/10 02:42:34;;;;;;;5.28;3.05;;;;;;;4.86;95.94;100439.44;5070908;28;20032;-60
2022/04/10 02:45:01;;;;;;;4.95;2.78;;;;;;;4.78;96.06;100443.88;5070563;28;20024;-60
2022/04/10 02:47:26;;;;;;;5.18;2.95;;;;;;;4.56;95.97;100425.50;5071015;28;20017;-60
2022/04/10 02:49:52;;;;;;;9.88;3.67;;;;;;;4.56;96.15;100439.53;5070672;28;20528;-60
2022/04/10 02:52:18;;;;;;;5.57;4.00;;;;;;;4.48;96.67;100438.66;5070941;28;20084;-60
2022/04/10 02:54:44;;;;;;;5.03;3.08;;;;;;;4.48;96.42;100451.81;5070811;28;20017;-60
2022/04/10 02:57:10;;;;;;;7.60;4.20;;;;;;;4.45;97.05;100450.97;5070947;28;20028;-60
2022/04/10 02:59:36;;;;;;;7.00;4.10;;;;;;;4.46;97.32;100445.69;5070636;28;20149;-60
2022/04/10 03:02:01;;;;;;;5.65;3.45;;;;;;;4.39;96.94;100446.59;5071964;28;20047;-60
2022/04/10 03:04:27;;;;;;;6.25;3.58;;;;;;;4.24;97.21;100459.75;5074540;28;20418;-60
2022/04/10 03:06:52;;;;;;;5.28;3.38;;;;;;;4.17;97.39;100457.13;5074435;28;20441;-60
2022/04/10 03:09:17;;;;;;;6.65;3.88;;;;;;;4.14;97.41;100460.63;5071469;28;20107;-60
2022/04/10 03:11:43;;;;;;;6.47;3.50;;;;;;;4.09;97.90;100462.38;5056692;28;20020;-59
2022/04/10 03:14:08;;;;;;;7.25;3.90;;;;;;;4.13;99.07;100456.25;5070172;28;20066;-60
2022/04/10 03:16:34;;;;;;;5.80;4.05;;;;;;;4.24;99.57;100465.03;5073431;28;20498;-60
2022/04/10 03:18:59;;;;;;;7.55;4.25;;;;;;;4.31;100.00;100469.41;5074342;28;20020;-60
2022/04/10 03:21:25;;;;;;;8.73;4.70;;;;;;;4.40;99.83;100473.81;5093313;28;20055;-60
2022/04/10 03:23:50;;;;;;;6.15;3.85;;;;;;;4.26;99.31;100472.91;5094431;28;20028;-60
2022/04/10 03:26:16;;;;;;;10.00;4.05;;;;;;;4.18;99.08;100469.41;5094643;28;20089;-60
2022/04/10 03:28:41;;;;;;;5.82;3.95;;;;;;;4.22;98.79;100473.81;5094374;28;20031;-60
2022/04/10 03:31:07;;;;;;;6.57;4.00;;;;;;;4.19;99.01;100474.66;5094362;28;20036;-60
2022/04/10 03:33:32;;;;;;;5.85;3.53;;;;;;;4.17;99.13;100476.41;5094348;28;20031;-60
2022/04/10 03:35:58;;;;;;;12.77;4.60;;;;;;;4.16;99.43;100474.66;5094574;28;20036;-60
2022/04/10 03:38:24;;;;;;;7.43;4.35;;;;;;;4.20;99.92;100480.81;5094415;28;20024;-60
2022/04/10 03:40:49;;;;;;;6.35;4.15;;;;;;;4.23;100.00;100476.44;5094368;28;20042;-60
2022/04/10 03:43:15;;;;;;;5.72;3.67;;;;;;;4.18;100.00;100475.56;5094027;28;20028;-62
2022/04/10 03:45:41;;;;;;;5.40;3.47;;;;;;;4.09;100.00;100478.16;5091107;28;20099;-60
2022/04/10 03:48:08;;;;;;;8.02;4.00;;;;;;;4.00;99.86;100492.19;5079902;28;20426;-60
2022/04/10 03:50:34;;;;;;;10.00;3.63;;;;;;;3.80;99.61;100477.25;5094026;28;20562;-60
2022/04/10 03:53:00;;;;;;;6.78;3.90;;;;;;;3.84;100.00;100492.16;5086013;28;20047;-60
2022/04/10 03:55:26;;;;;;;7.57;3.85;;;;;;;3.92;100.00;100495.72;5073868;28;20055;-60
2022/04/10 03:57:52;;;;;;;6.00;4.10;;;;;;;3.88;100.00;100488.69;5073884;28;20052;-60
2022/04/10 04:00:18;;;;;;;5.22;3.40;;;;;;;3.83;100.00;100496.56;5073678;28;20022;-60
2022/04/10 04:02:45;;;;;;;6.07;4.30;;;;;;;3.76;100.00;100504.44;5073727;28;20109;-60
2022/04/10 04:05:10;;;;;;;6.45;3.88;;;;;;;3.69;100.00;100497.41;5073639;28;20106;-60
2022/04/10 04:07:36;;;;;;;7.00;4.47;;;;;;;3.70;100.00;100504.44;5073722;28;20020;-60
2022/04/10 04:10:03;;;;;;;7.97;3.90;;;;;;;3.69;100.00;100502.69;5073491;28;20024;-60
2022/04/10 04:12:28;;;;;;;6.75;3.85;;;;;;;3.79;100.00;100504.44;5073954;28;20051;-60
2022/04/10 04:14:53;;;;;;;7.70;4.72;;;;;;;3.89;100.00;100516.72;5093596;28;20093;-60
2022/04/10 04:17:19;;;;;;;9.73;5.00;;;;;;;3.91;100.00;100509.72;5093719;28;20070;-60
2022/04/10 04:19:46;;;;;;;11.43;6.07;;;;;;;4.04;100.00;100514.13;5093070;28;20397;-60
2022/04/10 04:22:12;;;;;;;13.68;6.45;;;;;;;4.19;100.00;100516.78;5093720;28;20460;-60
2022/04/10 04:24:37;;;;;;;17.90;7.80;;;;;;;4.32;100.00;100515.91;5093582;28;20020;-60
2022/04/10 04:27:03;;;;;;;14.57;7.03;;;;;;;4.40;100.00;100519.41;5093257;28;20073;-60
2022/04/10 04:29:28;;;;;;;13.98;7.25;;;;;;;4.47;100.00;100521.19;5093339;28;20023;-60
2022/04/10 04:31:54;;;;;;;23.40;7.60;;;;;;;4.54;100.00;100520.31;5093701;28;20101;-60
2022/04/10 04:34:21;;;;;;;20.83;8.35;;;;;;;4.67;100.00;100516.78;5093249;28;20020;-60
2022/04/10 04:36:46;;;;;;;20.40;8.10;;;;;;;4.76;100.00;100527.31;5091594;28;20115;-60
2022/04/10 04:39:11;;;;;;;17.25;7.90;;;;;;;4.83;100.00;100529.06;5091797;28;20260;-60
2022/04/10 04:41:37;;;;;;;12.73;6.20;;;;;;;4.90;100.00;100536.09;5093386;28;20099;-60
2022/04/10 04:44:03;;;;;;;14.25;6.63;;;;;;;4.94;100.00;100542.25;5092829;28;20028;-60
2022/04/10 04:46:28;;;;;;;10.35;6.05;;;;;;;5.00;100.00;100537.81;5092766;28;20431;-60
2022/04/10 04:48:54;;;;;;;13.68;6.82;;;;;;;4.95;100.00;100538.72;5092797;28;20031;-60
2022/04/10 04:51:19;;;;;;;12.23;6.20;;;;;;;4.96;100.00;100543.97;5092860;28;20054;-60
2022/04/10 04:53:45;;;;;;;13.63;6.53;;;;;;;5.01;100.00;100549.22;5092905;28;20016;-61
2022/04/10 04:56:10;;;;;;;15.18;6.68;;;;;;;5.07;100.00;100546.59;5092642;28;20028;-60
2022/04/10 04:58:35;;;;;;;6.88;4.70;;;;;;;5.07;100.00;100550.09;5092797;28;20483;-60
2022/04/10 05:01:01;;;;;;;8.88;4.07;;;;;;;5.08;100.00;100557.16;5092873;28;20028;-60
2022/04/10 05:03:26;;;;;;;8.93;4.57;;;;;;;5.09;100.00;100558.88;5092665;28;20045;-60
2022/04/10 05:05:52;;;;;;;31.15;7.75;;;;;;;5.09;99.68;100556.25;5091974;28;20027;-60
2022/04/10 05:08:19;;;;;;;18.48;6.63;;;;;;;5.06;99.40;100556.25;5090285;28;20589;-60
2022/04/10 05:10:45;;;;;;;10.80;4.75;;;;;;;5.16;99.44;100565.03;5092427;28;20038;-60
2022/04/10 05:13:10;;;;;;;10.02;5.28;;;;;;;5.19;99.14;100565.91;5092575;28;20114;-60
2022/04/10 05:15:36;;;;;;;7.20;4.90;;;;;;;5.25;99.21;100559.75;5092332;28;20028;-60
2022/04/10 05:18:01;;;;;;;7.50;4.35;;;;;;;5.26;98.70;100567.66;5090541;28;20027;-60
2022/04/10 05:20:27;;;;;;;7.95;4.93;;;;;;;5.30;98.38;100569.38;5092089;28;20127;-60
2022/04/10 05:22:52;;;;;;;7.00;4.63;;;;;;;5.31;98.31;100576.44;5092417;28;20069;-60
2022/04/10 05:25:18;;;;;;;8.82;4.93;;;;;;;5.38;98.17;100572.00;5091392;28;20111;-60
2022/04/10 05:27:43;;;;;;;6.47;3.75;;;;;;;5.42;97.67;100583.44;5092528;28;20485;-60
2022/04/10 05:30:09;;;;;;;11.25;6.28;;;;;;;5.47;98.04;100577.25;5092176;28;20028;-60
2022/04/10 05:32:35;;;;;;;13.05;6.80;;;;;;;5.57;97.94;100578.97;5092335;28;20032;-60
2022/04/10 05:35:00;;;;;;;9.30;6.45;;;;;;;5.62;97.55;100584.25;5091796;28;20320;-60
2022/04/10 05:37:26;;;;;;;10.35;5.68;;;;;;;5.60;96.76;100584.22;5092224;28;20483;-60
2022/04/10 05:39:51;;;;;;;6.95;4.93;;;;;;;5.65;96.97;100586.88;5077497;28;20549;-60
2022/04/10 05:42:16;;;;;;;8.93;4.75;;;;;;;5.69;97.03;100592.13;5071884;28;20103;-60
2022/04/10 05:44:42;;;;;;;7.85;4.35;;;;;;;5.77;96.50;100592.97;5071508;28;20035;-60
2022/04/10 05:47:07;;;;;;;8.70;4.72;;;;;;;5.86;95.88;100592.97;5072590;28;20016;-60
2022/04/10 05:49:33;;;;;;;9.77;6.00;;;;;;;5.93;96.06;100601.75;5091859;28;20034;-60
2022/04/10 05:51:58;;;;;;;6.45;4.00;;;;;;;6.02;95.87;100606.97;5091322;28;20028;-60
2022/04/10 05:54:24;;;;;;;5.95;3.72;;;;;;;6.04;95.73;100613.13;5073713;28;20032;-60
2022/04/10 05:56:49;;;;;;;12.43;3.97;;;;;;;6.08;94.95;100620.16;5073881;28;20078;-60
2022/04/10 05:59:14;;;;;;;6.32;4.07;;;;;;;6.13;95.10;100621.88;5071507;28;20439;-60
2022/04/10 06:01:40;;;;;;;11.80;4.15;;;;;;;6.22;95.31;100619.19;5071844;28;20396;-60
2022/04/10 06:04:05;;;;;;;8.20;3.63;;;;;;;6.32;94.68;100620.00;5071176;28;20027;-60
2022/04/10 06:06:31;;;;;;;8.30;3.90;;;;;;;6.35;94.41;100614.72;5071757;28;20036;-60
2022/04/10 06:08:56;;;;;;;8.95;5.13;;;;;;;6.41;94.03;100618.19;5071369;28;20047;-60
2022/04/10 06:11:22;;;;;;;9.43;5.03;;;;;;;6.55;93.23;100618.09;5071289;28;20032;-60
2022/04/10 06:13:47;;;;;;;11.30;4.55;;;;;;;6.64;93.15;100631.25;5082458;28;20095;-60
2022/04/10 06:16:12;;;;;;;6.60;3.53;;;;;;;6.84;92.69;100626.69;5091772;28;20028;-60
2022/04/10 06:18:38;;;;;;;11.73;4.10;;;;;;;6.96;92.81;100631.88;5091620;28;20151;-60
2022/04/10 06:21:03;;;;;;;7.88;4.28;;;;;;;7.09;91.86;100632.66;5075321;28;20067;-60
2022/04/10 06:23:29;;;;;;;4.85;3.65;;;;;;;7.35;91.09;100636.81;5071457;28;20074;-60
2022/04/10 06:25:54;;;;;;;7.90;4.00;;;;;;;7.46;89.92;100632.28;5071119;28;20778;-60
2022/04/10 06:28:20;;;;;;;8.90;5.00;;;;;;;7.76;89.72;100620.47;5071613;28;20035;-60
2022/04/10 06:30:45;;;;;;;11.18;5.15;;;;;;;8.66;89.82;100615.75;5071302;28;20095;-60
2022/04/10 06:33:13;;;;;;;9.02;4.78;;;;;;;9.37;81.63;100618.09;5071524;28;20039;-60
2022/04/10 06:35:39;;;;;;;6.88;4.50;;;;;;;10.19;79.10;100618.25;5071076;28;20108;-60
2022/04/10 06:38:05;;;;;;;7.80;4.28;;;;;;;11.55;72.29;100617.53;5075478;28;20403;-60
2022/04/10 06:40:30;;;;;;;5.60;3.67;;;;;;;11.54;66.09;100624.69;5075035;28;20028;-60
2022/04/10 06:42:56;;;;;;;6.30;4.03;;;;;;;11.26;66.56;100625.44;5075427;28;20486;-60
2022/04/10 06:45:21;;;;;;;5.93;3.88;;;;;;;10.94;66.15;100633.38;5074748;28;20024;-60
2022/04/10 06:47:46;;;;;;;6.50;4.00;;;;;;;10.75;66.89;100634.69;5074844;28;20016;-60
2022/04/10 06:50:12;;;;;;;5.35;2.95;;;;;;;10.83;67.05;100622.97;5074577;28;20115;-60
2022/04/10 06:52:38;;;;;;;5.60;3.47;;;;;;;11.20;67.99;100634.44;5075034;28;20024;-60
2022/04/10 06:55:04;;;;;;;8.73;4.15;;;;;;;11.70;65.95;100622.50;5074883;28;20016;-60
2022/04/10 06:57:29;;;;;;;5.35;3.35;;;;;;;12.53;62.35;100630.72;5074974;28;20044;-60
2022/04/10 06:59:54;;;;;;;5.70;3.35;;;;;;;13.31;60.14;100627.31;5074752;28;20021;-60
2022/04/10 07:02:20;;;;;;;5.55;3.28;;;;;;;13.74;57.58;100632.91;5074689;28;20024;-60
2022/04/10 07:04:46;;;;;;;6.60;3.30;;;;;;;13.51;56.65;100630.19;5071766;28;20024;-60
2022/04/10 07:07:11;;;;;;;7.05;3.47;;;;;;;13.37;55.88;100637.78;5054044;28;20437;-60
2022/04/10 07:09:37;;;;;;;5.60;2.78;;;;;;;13.86;56.49;100636.00;5054395;28;20036;-60
2022/04/10 07:12:03;;;;;;;6.75;3.00;;;;;;;14.28;53.90;100634.44;5057536;28;20047;-60
2022/04/10 07:14:28;;;;;;;5.07;2.63;;;;;;;14.14;53.50;100625.16;5054675;28;20025;-60
2022/04/10 07:16:53;;;;;;;5.63;2.78;;;;;;;14.34;52.51;100625.31;5054390;28;20032;-60
2022/04/10 07:19:19;;;;;;;4.90;3.63;;;;;;;14.87;51.38;100625.91;5073210;28;20064;-60
2022/04/10 07:24:29;;;;;;;4.65;3.00;;;;;;;14.77;49.78;100636.13;5074494;28;20031;-60
2022/04/10 07:26:54;;;;;;;6.22;3.45;;;;;;;15.13;49.96;100633.75;5072952;28;20032;-60
2022/04/10 07:29:20;;;;;;;6.07;3.88;;;;;;;14.50;49.18;100642.53;5074014;28;20146;-60
2022/04/10 07:31:45;;;;;;;6.53;2.78;;;;;;;14.12;51.70;100637.72;5074139;28;20032;-60
2022/04/10 07:34:11;;;;;;;4.20;2.85;;;;;;;13.74;52.09;100635.59;5074205;28;20032;-60
2022/04/10 07:36:37;;;;;;;6.30;3.13;;;;;;;13.66;50.96;100651.00;5074210;28;20033;-60
2022/04/10 07:39:03;;;;;;;5.80;2.90;;;;;;;14.21;53.50;100642.75;5074101;28;20036;-60
2022/04/10 07:41:28;;;;;;;5.25;2.88;;;;;;;14.96;51.28;100653.19;5074300;28;20055;-60
2022/04/10 07:43:54;;;;;;;5.72;3.00;;;;;;;15.48;48.71;100636.75;5073890;28;20016;-60
2022/04/10 07:49:06;;;;;;;7.18;2.90;;;;;;;16.62;46.30;100646.75;5062144;28;20086;-60
2022/04/10 07:51:32;;;;;;;5.57;2.67;;;;;;;16.29;45.14;100642.06;5066947;28;20427;-60
2022/04/10 07:53:58;;;;;;;4.30;2.70;;;;;;;14.68;46.85;100655.22;5073977;28;20025;-60
2022/04/10 07:56:24;;;;;;;6.03;3.25;;;;;;;14.42;49.84;100652.66;5073845;28;20054;-60
2022/04/10 07:58:49;;;;;;;7.35;3.22;;;;;;;14.08;50.17;100644.13;5071900;28;20443;-60
2022/04/10 08:01:15;;;;;;;4.80;2.80;;;;;;;13.78;50.24;100650.56;5055328;28;20029;-60
2022/04/10 08:03:40;;;;;;;5.72;3.05;;;;;;;13.60;49.79;100664.59;5053846;28;20021;-61
2022/04/10 08:06:06;;;;;;;5.78;3.50;;;;;;;13.79;51.54;100660.38;5053618;28;20104;-61
2022/04/10 08:08:31;;;;;;;5.47;2.88;;;;;;;14.05;50.89;100660.31;5053704;28;20056;-61
2022/04/10 08:10:57;;;;;;;5.00;2.90;;;;;;;14.39;49.56;100660.81;5053724;28;20476;-61
2022/04/10 08:13:24;;;;;;;5.00;2.88;;;;;;;14.42;49.95;100666.06;5052153;28;20040;-61
2022/04/10 08:15:49;;;;;;;5.13;3.20;;;;;;;13.99;51.59;100672.09;5053479;28;20388;-61
2022/04/10 08:18:15;;;;;;;6.88;3.15;;;;;;;13.49;50.97;100672.13;5063935;28;20024;-61
2022/04/10 08:20:40;;;;;;;6.93;3.03;;;;;;;13.12;52.11;100675.13;5073045;28;20049;-61
2022/04/10 08:23:06;;;;;;;6.63;2.78;;;;;;;12.74;53.03;100681.66;5073058;28;20044;-61
2022/04/10 08:25:32;;;;;;;5.40;3.20;;;;;;;12.80;54.36;100684.13;5061834;28;20040;-61
2022/04/10 08:27:57;;;;;;;7.32;3.75;;;;;;;12.48;55.36;100681.56;5072644;28;20021;-61
2022/04/10 08:30:22;;;;;;;5.90;3.20;;;;;;;12.43;55.74;100688.81;5073090;28;20028;-61
2022/04/10 08:32:48;;;;;;;5.20;3.00;;;;;;;12.42;57.66;100681.72;5073234;28;20035;-61
2022/04/10 08:35:14;;;;;;;6.18;3.13;;;;;;;12.24;55.67;100687.59;5073499;28;20020;-61
2022/04/10 08:37:40;;;;;;;7.45;3.05;;;;;;;12.01;57.48;100663.38;5073168;28;20175;-61
2022/04/10 08:40:06;;;;;;;3.97;2.70;;;;;;;12.05;58.41;100691.72;5072742;28;20028;-61
2022/04/10 08:42:32;;;;;;;6.72;3.08;;;;;;;12.16;57.19;100688.75;5071623;28;20863;-61
2022/04/10 08:44:58;;;;;;;5.28;3.38;;;;;;;12.21;56.83;100666.34;5072486;28;20026;-61
2022/04/10 08:47:25;;;;;;;5.55;3.10;;;;;;;12.67;57.60;100700.53;5073069;28;20382;-61
2022/04/10 08:49:53;;;;;;;7.78;3.13;;;;;;;12.78;56.26;100695.78;5072899;28;20028;-61
2022/04/10 08:52:20;;;;;;;9.98;4.40;;;;;;;12.63;55.23;100707.78;5071798;28;20071;-61
2022/04/10 08:54:47;;;;;;;5.57;3.60;;;;;;;12.72;56.04;100691.47;5071931;28;20024;-61
2022/04/10 08:57:13;;;;;;;11.45;3.00;;;;;;;13.01;55.33;100703.97;5072552;28;20109;-61
2022/04/10 08:59:39;;;;;;;5.03;2.60;;;;;;;13.16;54.74;100703.50;5072113;28;20107;-61
2022/04/10 09:02:05;;;;;;;5.13;3.53;;;;;;;13.00;53.36;100703.06;5072417;28;20039;-61
2022/04/10 09:04:31;;;;;;;5.75;3.00;;;;;;;12.67;54.78;100708.56;5072370;28;20029;-61
2022/04/10 09:07:07;;;;;;;4.50;2.95;;;;;;;12.77;54.72;100705.56;5055822;28;20392;-61
2022/04/10 09:09:34;;;;;;;5.25;3.45;;;;;;;13.00;55.25;100707.53;5052271;28;20253;-61
2022/04/10 09:12:00;;;;;;;4.88;3.55;;;;;;;13.23;55.33;100705.03;5052252;28;20108;-61
2022/04/10 09:14:34;;;;;;;5.25;3.03;;;;;;;13.12;54.26;100718.75;5052352;28;20024;-61
2022/04/10 09:17:20;;;;;;;8.02;3.63;;;;;;;12.49;53.35;100709.97;5052122;28;20016;-61
2022/04/10 09:19:48;;;;;;;7.30;3.28;;;;;;;12.71;53.36;100711.09;5059179;28;20064;-61
2022/04/10 09:22:20;;;;;;;5.45;2.90;;;;;;;13.35;53.77;100704.63;5090714;28;20057;-61
2022/04/10 09:25:12;;;;;;;6.95;3.10;;;;;;;14.63;47.74;100701.84;5092333;28;20036;-61
2022/04/10 09:27:43;;;;;;;6.15;3.17;;;;;;;15.42;46.44;100704.00;5092806;28;20077;-61
2022/04/10 09:30:13;;;;;;;6.47;3.63;;;;;;;16.40;45.01;100698.81;5092135;28;20028;-61
2022/04/10 09:32:44;;;;;;;7.72;3.38;;;;;;;16.88;44.79;100697.47;5092281;28;20028;-61
2022/04/10 09:35:12;;;;;;;5.00;2.88;;;;;;;17.21;42.17;100686.91;5092200;28;20016;-61
2022/04/10 09:37:57;;;;;;;6.15;2.80;;;;;;;17.56;43.76;100691.41;5092319;28;20049;-61
2022/04/10 09:40:34;;;;;;;3.40;2.33;;;;;;;18.36;40.61;100687.19;5090847;28;20106;-61
2022/04/10 09:43:10;;;;;;;3.25;2.13;;;;;;;18.61;41.82;100693.03;5092027;28;20042;-61
2022/04/10 09:45:36;;;;;;;4.40;2.80;;;;;;;18.87;39.74;100694.28;5091801;28;20024;-61
2022/04/10 09:48:29;;;;;;;5.85;2.60;;;;;;;19.12;39.68;100687.44;5089505;28;20103;-62
2022/04/10 09:51:03;;;;;;;5.68;2.33;;;;;;;19.34;39.06;100692.50;5086574;28;20042;-62
2022/04/10 09:53:30;;;;;;;4.25;2.58;;;;;;;19.35;39.16;100688.84;5091875;28;20032;-62
2022/04/10 09:55:57;;;;;;;6.88;2.92;;;;;;;19.17;40.34;100684.47;5092218;28;20020;-62
2022/04/10 09:58:23;;;;;;;5.90;2.63;;;;;;;19.20;39.11;100685.16;5089764;28;20028;-62
2022/04/10 10:00:52;;;;;;;4.57;2.70;;;;;;;19.23;36.60;100678.72;5090441;28;20086;-62
2022/04/10 10:03:21;;;;;;;4.53;2.55;;;;;;;18.04;37.99;100678.13;5091652;28;20024;-62
2022/04/10 10:05:49;;;;;;;7.97;4.03;;;;;;;18.02;40.60;100673.78;5091494;28;20028;-62
2022/04/10 10:08:16;;;;;;;5.10;3.10;;;;;;;18.49;40.56;100676.66;5092018;28;20063;-62
2022/04/10 10:10:42;;;;;;;5.68;2.90;;;;;;;18.94;38.59;100676.81;5091788;28;20044;-61
2022/04/10 10:13:08;;;;;;;4.15;2.70;;;;;;;19.77;37.90;100671.97;5091642;28;20538;-61
2022/04/10 10:15:35;;;;;;;6.03;2.80;;;;;;;19.85;34.92;100670.50;5091637;28;20020;-62
2022/04/10 10:18:03;;;;;;;9.18;4.65;;;;;;;19.93;35.49;100667.38;5089726;28;20028;-62
2022/04/10 10:20:29;;;;;;;6.00;2.85;;;;;;;19.69;36.57;100660.75;5089369;28;20040;-63
2022/04/10 10:22:54;;;;;;;5.00;2.88;;;;;;;20.18;36.47;100655.00;5090651;28;20236;-62
2022/04/10 10:25:29;;;;;;;4.60;2.83;;;;;;;20.25;36.44;100653.66;5090195;28;20028;-62
2022/04/10 10:28:13;;;;;;;4.07;2.75;;;;;;;20.57;34.31;100660.63;5091437;28;20531;-62
2022/04/10 10:30:57;;;;;;;5.55;3.03;;;;;;;21.20;33.58;100642.09;5088354;28;20101;-62
2022/04/10 10:33:24;;;;;;;5.85;2.67;;;;;;;21.12;34.19;100647.13;5071473;28;20028;-62
2022/04/10 10:35:56;;;;;;;3.80;2.40;;;;;;;20.42;35.79;100647.19;5071273;28;20031;-62
2022/04/10 10:38:33;;;;;;;5.30;2.75;;;;;;;19.71;35.23;100646.19;5091036;28;20032;-62
2022/04/10 10:41:16;;;;;;;5.20;2.97;;;;;;;18.43;37.51;100648.22;5091270;28;20031;-62
2022/04/10 10:43:42;;;;;;;4.60;2.50;;;;;;;18.53;37.69;100651.28;5091416;28;20039;-62
2022/04/10 10:46:32;;;;;;;5.28;2.58;;;;;;;17.58;37.04;100645.59;5091174;28;20399;-62
2022/04/10 10:49:16;;;;;;;5.97;2.40;;;;;;;17.92;36.37;100645.59;5091251;28;20031;-62
2022/04/10 10:51:48;;;;;;;;;;;;;;;18.76;36.75;100635.59;5090481;28;20127;-62
2022/04/10 10:54:35;;;;;;;5.25;2.85;;;;;;;18.10;36.51;100637.41;5091350;28;20470;-62
2022/04/10 10:57:31;;;;;;;3.65;2.33;;;;;;;17.17;37.05;100631.50;5091029;28;20028;-61
2022/04/10 11:00:05;;;;;;;4.28;2.95;;;;;;;16.50;40.43;100631.22;5091002;28;20501;-61
2022/04/10 11:02:36;;;;;;;4.68;2.50;;;;;;;15.97;41.48;100639.94;5091214;28;20103;-62
2022/04/10 11:05:06;;;;;;;4.70;2.65;;;;;;;15.51;42.25;100641.97;5091293;28;20369;-61
2022/04/10 11:07:36;;;;;;;7.45;3.08;;;;;;;15.19;42.25;100644.22;5091265;28;20024;-61
2022/04/10 11:10:05;;;;;;;6.95;3.42;;;;;;;14.97;45.80;100651.38;5087864;28;20450;-61
2022/04/10 11:12:50;;;;;;;5.07;3.22;;;;;;;14.50;44.09;100645.22;5071346;28;20025;-62
2022/04/10 11:15:22;;;;;;;6.32;3.72;;;;;;;14.13;43.17;100647.50;5071640;28;20023;-62
2022/04/10 11:17:49;;;;;;;6.22;3.60;;;;;;;13.92;44.52;100641.13;5077352;28;20027;-62
2022/04/10 11:20:16;;;;;;;8.05;3.17;;;;;;;14.13;43.87;100647.50;5087499;28;20141;-61
2022/04/10 11:22:52;;;;;;;6.20;2.80;;;;;;;14.12;43.88;100646.63;5093174;28;20095;-61
2022/04/10 11:25:19;;;;;;;6.00;2.40;;;;;;;14.28;44.92;100639.81;5094357;28;20547;-61
2022/04/10 11:27:50;;;;;;;4.50;2.63;;;;;;;14.17;43.57;100633.06;5094565;28;20429;-61
2022/04/10 11:30:39;;;;;;;5.72;3.05;;;;;;;14.32;44.90;100632.53;5094431;28;20085;-61
2022/04/10 11:33:07;;;;;;;4.10;2.80;;;;;;;14.45;44.24;100639.16;5079345;28;20044;-61
2022/04/10 11:35:34;;;;;;;5.45;3.33;;;;;;;14.67;44.18;100626.69;5094331;28;20024;-61